Saturday, October 20, 2018, 9:42 PM EDT
Back to Local

KTTN, Trenton Mercer County Airport

Location: Trenton, NJ, United States Lat: 40.283
Local Time: 9:42 PM EDT ( 1:42 GMT) Lon: -74.817
Time Zone: US/Eastern Elev: 213 ft

Show me the last for .
Show Decoded

2018-10-20 20:53 METAR KTTN 210053Z 26003KT 10SM CLR 13/07 A2962 RMK AO2 SLP025 T01280072 =
2018-10-20 19:53 METAR KTTN 202353Z 22003KT 10SM CLR 13/07 A2962 RMK AO2 SLP026 T01280072 10172
                 20128 55001 =
2018-10-20 18:53 METAR KTTN 202253Z 23003KT 10SM CLR 14/07 A2962 RMK AO2 SLP025 T01440072 =
2018-10-20 17:53 METAR KTTN 202153Z 24004KT 10SM BKN080 16/06 A2963 RMK AO2 SLP027 T01610061 =
2018-10-20 16:53 METAR KTTN 202053Z 25004KT 10SM BKN080 17/08 A2963 RMK AO2 SLP026 T01720083
                 56022 =
2018-10-20 15:53 METAR KTTN 201953Z 26004KT 10SM FEW042 SCT060 BKN075 17/09 A2964 RMK AO2 SLP032
                 T01720089 =
2018-10-20 14:53 METAR KTTN 201853Z 27006G15KT 10SM OVC065 17/09 A2966 RMK AO2 SLP039 T01670089 =
2018-10-20 13:53 METAR KTTN 201753Z 27009G19KT 10SM SCT033 BKN047 17/09 A2969 RMK AO2 SLP048
                 T01720094 10172 20122 58021 =
2018-10-20 12:53 METAR KTTN 201653Z 29008KT 10SM FEW027 FEW033 BKN043 16/09 A2972 RMK AO2 SLP058
                 T01610094 =
2018-10-20 12:01 METAR KTTN 201601Z 28007KT 10SM SCT025 BKN031 BKN038 16/11 A2975 RMK AO2
                 T01560106 =
2018-10-20 11:53 METAR KTTN 201553Z 26009G16KT 10SM SCT023 BKN029 BKN034 16/11 A2975 RMK AO2
                 SLP068 T01560106 =
2018-10-20 11:24 METAR KTTN 201524Z 27009G18KT 10SM SCT018 BKN026 16/11 A2975 RMK AO2 T01560106 =
2018-10-20 10:53 METAR KTTN 201453Z 23006KT 10SM FEW015 SCT070 15/12 A2975 RMK AO2 SLP069
                 T01500117 58008 =
2018-10-20 09:53 METAR KTTN 201353Z 24006KT 10SM SCT040 OVC065 14/12 A2977 RMK AO2 SLP074
                 T01390122 =
2018-10-20 08:53 METAR KTTN 201253Z 21007KT 7SM FEW017 BKN034 OVC047 13/12 A2978 RMK AO2 SLP077
                 T01280117 =
2018-10-20 08:42 METAR KTTN 201242Z 22005KT 8SM FEW011 BKN017 OVC047 13/12 A2978 RMK AO2
                 T01280117 =
2018-10-20 07:53 METAR KTTN 201153Z 24004KT 8SM OVC012 12/11 A2977 RMK AO2 SLP076 60006 70006
                 T01220111 10133 20117 55004 =
2018-10-20 07:37 METAR KTTN 201137Z 23004KT 10SM BKN011 OVC044 12/11 A2977 RMK AO2 T01220111 =
2018-10-20 06:53 METAR KTTN 201053Z 20006KT 10SM OVC048 12/11 A2975 RMK AO2 SLP069 T01220111 =
2018-10-20 05:53 METAR KTTN 200953Z 20009KT 10SM OVC055 12/11 A2977 RMK AO2 RAE52 SLP073 P0001
                 T01170106 =
2018-10-20 04:53 METAR KTTN 200853Z AUTO 19005KT 7SM -RA FEW070 OVC100 12/10 A2978 RMK AO2 SLP080
                 P0003 60005 T01170100 56027 =
2018-10-20 03:53 METAR KTTN 200753Z AUTO 20005KT 10SM -RA OVC080 12/10 A2981 RMK AO2 SLP088 P0001
                 T01170100 =
2018-10-20 02:53 METAR KTTN 200653Z AUTO 25004KT 10SM -RA OVC100 13/09 A2984 RMK AO2 SLP099 P0001
                 T01280089 =
2018-10-20 01:53 METAR KTTN 200553Z AUTO 23005KT 10SM -RA OVC100 13/08 A2986 RMK AO2 RAB34 SLP107
                 P0000 60000 T01330078 10139 20117 56029 =
2018-10-20 00:53 METAR KTTN 200453Z AUTO 22005KT 10SM BKN100 OVC120 13/07 A2988 RMK AO2 SLP113
                 T01330072 401610011 =
2018-10-19 23:53 METAR KTTN 200353Z AUTO 20009KT 10SM CLR 13/07 A2991 RMK AO2 SLP123 T01330067 =
2018-10-19 22:53 METAR KTTN 200253Z AUTO 21006KT 10SM CLR 13/06 A2995 RMK AO2 SLP137 T01280061
                 58027 =
2018-10-19 21:53 METAR KTTN 200153Z 19009KT 10SM CLR 12/06 A2998 RMK AO2 SLP147 T01220061 =

Support USWX by starting your Amazon purchase here.